Time;durP1;ratioP1;P1;durP2;ratioP2;P2;SDS_P1;SDS_P2;PMS_P1;PMS_P2;Temp;Humidity;BMP_temperature;BMP_pressure;BME280_temperature;BME280_humidity;BME280_pressure;Samples;Min_cycle;Max_cycle;Signal;HPM_P1;HPM_P2
2023/08/15 00:00:55;;;;;;;2.75;1.50;;;20.30;92.00;;;;;;6157362;23;20001;-84
2023/08/15 00:03:20;;;;;;;2.25;1.42;;;20.20;91.90;;;;;;6155736;23;20341;-82
2023/08/15 00:05:45;;;;;;;1.92;1.40;;;20.20;91.90;;;;;;6157652;23;19998;-82
2023/08/15 00:08:11;;;;;;;2.75;1.60;;;20.30;91.90;;;;;;6156051;23;20436;-83
2023/08/15 00:10:37;;;;;;;2.30;1.38;;;20.30;91.90;;;;;;6157487;23;19998;-83
2023/08/15 00:13:03;;;;;;;2.42;1.60;;;20.30;91.90;;;;;;6157513;23;20021;-81
2023/08/15 00:15:30;;;;;;;2.63;1.60;;;20.20;91.90;;;;;;6155505;23;20436;-83
2023/08/15 00:17:55;;;;;;;2.83;1.67;;;20.30;91.90;;;;;;6156081;23;20001;-83
2023/08/15 00:20:21;;;;;;;2.53;1.50;;;20.30;91.90;;;;;;6157577;23;20305;-82
2023/08/15 00:22:46;;;;;;;2.75;1.75;;;20.30;91.80;;;;;;6155425;23;20080;-82
2023/08/15 00:25:12;;;;;;;3.00;1.70;;;20.30;91.80;;;;;;6157145;23;19998;-81
2023/08/15 00:27:38;;;;;;;2.88;1.67;;;20.40;91.80;;;;;;6157199;23;20029;-83
2023/08/15 00:30:05;;;;;;;3.15;1.50;;;20.40;91.80;;;;;;6155276;23;20021;-82
2023/08/15 00:32:35;;;;;;;2.85;1.50;;;20.40;91.80;;;;;;6130721;23;20084;-82
2023/08/15 00:35:04;;;;;;;2.90;1.50;;;20.40;91.70;;;;;;6154556;23;20002;-84
2023/08/15 00:37:31;;;;;;;2.60;1.52;;;20.40;91.80;;;;;;6155448;23;20707;-83
2023/08/15 00:39:56;;;;;;;2.63;1.67;;;20.40;91.80;;;;;;6156831;23;19998;-82
2023/08/15 00:42:22;;;;;;;2.30;1.40;;;20.40;91.70;;;;;;6154822;23;20008;-82
2023/08/15 00:44:47;;;;;;;2.63;1.67;;;20.40;91.80;;;;;;6156596;23;20017;-82
2023/08/15 00:47:13;;;;;;;3.25;1.67;;;20.40;91.70;;;;;;6154611;23;20029;-82
2023/08/15 00:49:41;;;;;;;3.75;1.80;;;20.40;91.70;;;;;;6156528;23;20001;-82
2023/08/15 00:52:07;;;;;;;3.53;1.63;;;20.30;91.70;;;;;;6154780;23;20001;-82
2023/08/15 00:54:34;;;;;;;3.38;1.70;;;20.30;91.80;;;;;;6154856;23;20006;-82
2023/08/15 00:57:01;;;;;;;2.97;1.65;;;20.30;91.80;;;;;;6154555;23;20005;-82
2023/08/15 00:59:27;;;;;;;2.90;1.67;;;20.30;91.90;;;;;;6154825;23;20009;-83
2023/08/15 01:01:52;;;;;;;2.60;1.50;;;20.30;91.90;;;;;;6155668;23;19997;-82
2023/08/15 01:04:18;;;;;;;3.55;1.70;;;20.30;91.90;;;;;;6155838;23;20076;-82
2023/08/15 01:06:44;;;;;;;1.85;1.40;;;20.30;92.00;;;;;;6156804;23;20032;-82
2023/08/15 01:09:09;;;;;;;3.60;1.88;;;20.30;92.00;;;;;;6154630;23;19997;-82
2023/08/15 01:11:44;;;;;;;2.80;1.55;;;20.10;91.90;;;;;;6154768;23;20001;-82
2023/08/15 01:14:15;;;;;;;3.45;1.60;;;20.30;92.00;;;;;;6153778;23;20008;-82
2023/08/15 01:16:45;;;;;;;3.05;1.58;;;20.30;92.00;;;;;;6155886;23;20000;-82
2023/08/15 01:19:16;;;;;;;3.47;1.80;;;20.30;92.00;;;;;;6154391;23;20082;-82
2023/08/15 01:21:46;;;;;;;3.30;1.70;;;20.30;92.00;;;;;;6155877;23;20010;-82
2023/08/15 01:24:11;;;;;;;2.10;1.45;;;20.20;92.00;;;;;;6154018;23;20419;-82
2023/08/15 01:26:37;;;;;;;2.92;1.65;;;20.30;92.00;;;;;;6154381;23;20140;-82
2023/08/15 01:29:03;;;;;;;3.20;1.70;;;20.20;92.00;;;;;;6154170;23;20008;-82
2023/08/15 01:31:36;;;;;;;2.83;1.58;;;20.30;92.00;;;;;;6156167;23;19997;-82
2023/08/15 01:34:18;;;;;;;2.72;1.60;;;20.30;92.00;;;;;;6153740;23;20438;-82
2023/08/15 01:36:52;;;;;;;2.70;1.50;;;20.30;92.00;;;;;;6154127;23;19997;-82
2023/08/15 01:39:23;;;;;;;2.30;1.50;;;20.20;92.00;;;;;;6154280;23;20421;-82
2023/08/15 01:41:52;;;;;;;3.10;1.60;;;20.20;92.00;;;;;;6153842;23;20009;-82
2023/08/15 01:44:19;;;;;;;2.78;1.58;;;20.30;92.00;;;;;;6154030;23;19997;-81
2023/08/15 01:46:46;;;;;;;2.45;1.45;;;20.30;92.00;;;;;;6155481;23;20067;-83
2023/08/15 01:49:13;;;;;;;2.38;1.50;;;20.30;91.90;;;;;;6154211;23;20478;-82
2023/08/15 01:51:38;;;;;;;2.80;1.42;;;20.30;91.90;;;;;;6153756;23;20013;-82
2023/08/15 01:54:04;;;;;;;2.70;1.60;;;20.30;91.90;;;;;;6155198;23;20011;-83
2023/08/15 01:56:29;;;;;;;3.30;1.63;;;20.40;91.90;;;;;;6155161;23;20084;-82
2023/08/15 01:58:55;;;;;;;2.28;1.40;;;20.40;91.90;;;;;;6154031;23;20009;-82
2023/08/15 02:01:20;;;;;;;2.58;1.60;;;20.40;91.90;;;;;;6153789;23;20484;-82
2023/08/15 02:03:46;;;;;;;2.78;1.75;;;20.40;91.80;;;;;;6155089;23;20004;-81
2023/08/15 02:06:11;;;;;;;2.45;1.50;;;20.40;91.80;;;;;;6155334;23;20064;-81
2023/08/15 02:08:37;;;;;;;2.47;1.63;;;20.40;91.80;;;;;;6154076;23;20002;-83
2023/08/15 02:11:02;;;;;;;2.10;1.42;;;20.40;91.80;;;;;;6159857;23;20459;-84
2023/08/15 02:13:32;;;;;;;2.40;1.58;;;20.40;91.80;;;;;;6156454;23;20001;-83
2023/08/15 02:15:57;;;;;;;2.63;1.55;;;20.40;91.80;;;;;;6159993;23;19997;-84
2023/08/15 02:18:27;;;;;;;2.80;1.60;;;20.30;91.70;;;;;;6157634;23;19998;-82
2023/08/15 02:20:52;;;;;;;2.70;1.50;;;20.30;91.70;;;;;;6157715;23;20001;-83
2023/08/15 02:23:18;;;;;;;2.50;1.63;;;20.40;91.80;;;;;;6158023;23;20006;-83
2023/08/15 02:25:43;;;;;;;2.70;1.55;;;20.30;91.90;;;;;;6157954;23;20055;-82
2023/08/15 02:28:09;;;;;;;2.55;1.63;;;20.30;91.90;;;;;;6157993;23;20380;-84
2023/08/15 02:30:37;;;;;;;2.30;1.45;;;20.30;91.90;;;;;;6158861;23;20092;-83
2023/08/15 02:33:04;;;;;;;2.30;1.42;;;20.30;92.00;;;;;;6157977;23;20001;-83
2023/08/15 02:35:29;;;;;;;2.45;1.50;;;20.30;92.00;;;;;;6157400;23;20005;-84
2023/08/15 02:37:55;;;;;;;2.88;1.60;;;20.30;92.00;;;;;;6157834;23;20001;-83
2023/08/15 02:40:21;;;;;;;2.80;1.70;;;20.30;92.00;;;;;;6157725;23;20001;-83
2023/08/15 02:42:46;;;;;;;2.53;1.42;;;20.30;92.00;;;;;;6158882;23;20065;-82
2023/08/15 02:45:12;;;;;;;3.20;1.80;;;20.30;92.10;;;;;;6157249;23;20095;-82
2023/08/15 02:47:37;;;;;;;2.05;1.30;;;20.30;92.00;;;;;;6157392;23;20002;-83
2023/08/15 02:50:04;;;;;;;2.55;1.60;;;20.20;92.10;;;;;;6157623;23;20005;-83
2023/08/15 02:52:29;;;;;;;2.85;1.70;;;20.30;92.10;;;;;;6156852;23;20333;-83
2023/08/15 02:54:54;;;;;;;1.95;1.40;;;20.20;92.00;;;;;;6157340;23;20076;-83
2023/08/15 02:57:20;;;;;;;2.35;1.50;;;20.20;92.10;;;;;;6157285;23;20000;-83
2023/08/15 02:59:45;;;;;;;2.75;1.60;;;20.30;92.10;;;;;;6156676;23;20321;-82
2023/08/15 03:02:15;;;;;;;2.55;1.50;;;20.20;92.00;;;;;;6156492;23;19993;-82
2023/08/15 03:04:41;;;;;;;2.88;1.80;;;20.20;92.10;;;;;;6156301;23;20028;-82
2023/08/15 03:07:06;;;;;;;2.58;1.60;;;20.30;92.10;;;;;;6157115;23;19994;-81
2023/08/15 03:09:32;;;;;;;2.78;1.50;;;20.30;92.10;;;;;;6158088;23;20440;-83
2023/08/15 03:11:57;;;;;;;2.63;1.70;;;20.30;92.10;;;;;;6156237;23;19998;-83
2023/08/15 03:14:23;;;;;;;2.67;1.45;;;20.30;92.10;;;;;;6156039;23;20340;-82
2023/08/15 03:16:49;;;;;;;2.50;1.45;;;20.30;92.10;;;;;;6156456;23;20055;-82
2023/08/15 03:19:14;;;;;;;2.08;1.40;;;20.30;92.00;;;;;;6158142;23;20005;-82
2023/08/15 03:21:40;;;;;;;3.25;1.52;;;20.30;92.00;;;;;;6156291;23;20371;-82
2023/08/15 03:24:06;;;;;;;3.00;1.75;;;20.30;92.00;;;;;;6155546;23;20327;-87
2023/08/15 03:26:34;;;;;;;2.58;1.55;;;20.30;92.00;;;;;;6153811;23;20124;-86
2023/08/15 03:28:59;;;;;;;2.90;1.50;;;20.30;91.90;;;;;;6153811;23;19998;-83
2023/08/15 04:26:59;;;;;;;2.72;1.52;;;20.00;92.10;;;;;;6005735;23;20025;-83
2023/08/15 05:50:14;;;;;;;3.27;1.90;;;20.20;92.40;;;;;;5969477;24;20157;-84
2023/08/15 05:52:39;;;;;;;2.67;1.70;;;21.50;92.80;;;;;;5961961;24;20336;-86
2023/08/15 05:55:05;;;;;;;2.47;1.50;;;19.50;92.30;;;;;;6031129;23;20003;-85
2023/08/15 05:57:31;;;;;;;3.00;1.77;;;20.30;92.50;;;;;;6039169;23;20003;-84
2023/08/15 05:59:56;;;;;;;3.08;1.48;;;20.30;92.50;;;;;;6128207;23;20369;-85
2023/08/15 06:02:22;;;;;;;2.75;1.75;;;20.20;92.50;;;;;;6127584;23;20024;-85
2023/08/15 06:04:47;;;;;;;2.97;1.75;;;20.30;92.70;;;;;;6126511;23;19998;-84
2023/08/15 06:07:13;;;;;;;3.13;1.70;;;20.30;92.50;;;;;;6126421;23;20044;-85
2023/08/15 06:09:38;;;;;;;3.10;1.80;;;20.20;92.50;;;;;;6126703;23;20037;-85
2023/08/15 06:12:04;;;;;;;3.78;1.45;;;20.20;92.40;;;;;;6126206;23;20056;-85
2023/08/15 06:14:31;;;;;;;3.70;1.95;;;20.30;92.40;;;;;;6126241;23;20093;-84
2023/08/15 06:16:56;;;;;;;3.50;1.63;;;20.30;92.40;;;;;;6126420;23;20032;-85
2023/08/15 06:19:22;;;;;;;2.75;1.60;;;20.30;92.40;;;;;;6126111;23;19998;-85
2023/08/15 06:21:47;;;;;;;2.88;1.70;;;20.40;92.40;;;;;;6125417;23;20044;-84
2023/08/15 06:24:13;;;;;;;2.03;1.40;;;20.30;92.30;;;;;;6125739;23;20032;-84
2023/08/15 06:26:39;;;;;;;2.58;1.60;;;20.30;92.30;;;;;;6126230;23;19994;-85
2023/08/15 06:29:06;;;;;;;3.08;1.65;;;20.40;92.30;;;;;;6127334;23;19998;-84
2023/08/15 06:31:33;;;;;;;2.65;1.55;;;20.40;92.20;;;;;;6126020;23;20140;-82
2023/08/15 06:33:59;;;;;;;2.67;1.50;;;20.40;92.20;;;;;;6124931;23;20065;-85
2023/08/15 06:36:25;;;;;;;3.00;1.58;;;20.40;92.10;;;;;;6127302;23;20006;-84
2023/08/15 06:38:50;;;;;;;2.88;1.63;;;20.40;92.10;;;;;;6125553;23;20051;-85
2023/08/15 06:41:16;;;;;;;3.33;1.60;;;20.40;92.10;;;;;;6125504;23;20072;-86
2023/08/15 06:43:44;;;;;;;4.40;1.60;;;20.40;92.00;;;;;;6125012;23;20092;-84
2023/08/15 06:46:10;;;;;;;2.30;1.55;;;20.40;92.10;;;;;;6125502;23;20005;-85
2023/08/15 06:48:36;;;;;;;2.35;1.50;;;20.40;92.10;;;;;;6125619;23;20025;-85
2023/08/15 06:51:01;;;;;;;2.55;1.45;;;20.40;92.10;;;;;;6125356;23;20006;-84
2023/08/15 06:53:29;;;;;;;3.30;1.65;;;20.40;92.20;;;;;;6124974;23;20006;-83
2023/08/15 06:55:54;;;;;;;3.22;1.52;;;20.30;92.20;;;;;;6125484;23;20085;-85
2023/08/15 06:58:20;;;;;;;3.70;1.67;;;20.40;92.20;;;;;;6126749;23;20060;-84
2023/08/15 07:00:46;;;;;;;2.47;1.45;;;20.30;92.20;;;;;;6126241;23;20065;-85
2023/08/15 07:03:15;;;;;;;2.97;1.60;;;20.40;92.20;;;;;;6124901;23;20369;-85
2023/08/15 07:05:41;;;;;;;2.33;1.42;;;20.40;92.30;;;;;;6125110;23;20005;-85
2023/08/15 07:08:07;;;;;;;3.22;1.50;;;20.30;92.30;;;;;;6125370;23;20002;-84
2023/08/15 07:10:34;;;;;;;2.78;1.60;;;20.30;92.30;;;;;;6127318;23;20005;-85
2023/08/15 07:12:59;;;;;;;2.13;1.58;;;20.40;92.30;;;;;;6124831;23;20027;-84
2023/08/15 07:15:25;;;;;;;2.83;1.48;;;20.30;92.20;;;;;;6124990;23;20593;-84
2023/08/15 07:17:50;;;;;;;2.63;1.67;;;20.40;92.30;;;;;;6125277;23;20010;-85
2023/08/15 07:20:16;;;;;;;3.53;1.83;;;20.40;92.20;;;;;;6125010;23;20533;-85
2023/08/15 07:22:42;;;;;;;2.15;1.50;;;20.40;92.20;;;;;;6124560;23;20077;-85
2023/08/15 07:25:08;;;;;;;3.55;1.50;;;20.40;92.20;;;;;;6126112;23;20328;-84
2023/08/15 07:27:34;;;;;;;2.72;1.50;;;20.40;92.20;;;;;;6125110;23;19997;-84
2023/08/15 07:29:59;;;;;;;2.80;1.60;;;20.40;92.20;;;;;;6124646;23;20010;-85
2023/08/15 07:32:28;;;;;;;2.50;1.40;;;20.40;92.10;;;;;;6124519;23;20009;-85
2023/08/15 07:34:54;;;;;;;2.63;1.50;;;20.40;92.10;;;;;;6126237;23;20006;-85
2023/08/15 07:37:19;;;;;;;3.17;1.60;;;20.40;92.10;;;;;;6124976;23;20512;-84
2023/08/15 07:39:45;;;;;;;1.98;1.35;;;20.40;92.10;;;;;;6124827;23;20048;-85
2023/08/15 07:42:10;;;;;;;2.92;1.80;;;20.50;92.10;;;;;;6125934;23;19998;-85
2023/08/15 07:44:36;;;;;;;1.90;1.30;;;20.50;92.10;;;;;;6124495;23;20080;-85
2023/08/15 07:47:01;;;;;;;2.45;1.40;;;20.50;92.00;;;;;;6126208;23;20002;-85
2023/08/15 07:49:30;;;;;;;2.80;1.80;;;20.50;91.90;;;;;;6124667;23;20029;-84
2023/08/15 07:51:56;;;;;;;2.70;1.50;;;20.60;91.80;;;;;;6126215;23;20056;-85
2023/08/15 07:54:21;;;;;;;2.50;1.67;;;20.60;91.70;;;;;;6124482;23;20014;-84
2023/08/15 07:56:47;;;;;;;2.80;1.58;;;20.70;91.70;;;;;;6126427;23;20044;-85
2023/08/15 07:59:13;;;;;;;2.03;1.38;;;20.60;91.50;;;;;;6124739;23;20002;-85
2023/08/15 08:01:38;;;;;;;2.63;1.50;;;20.80;91.50;;;;;;6124463;23;20006;-85
2023/08/15 08:04:04;;;;;;;2.65;1.60;;;20.90;91.40;;;;;;6124352;23;20072;-86
2023/08/15 08:06:30;;;;;;;2.17;1.55;;;20.80;91.40;;;;;;6126021;23;20433;-85
2023/08/15 08:08:55;;;;;;;2.45;1.50;;;20.80;91.30;;;;;;6124715;23;20008;-85
2023/08/15 08:11:21;;;;;;;2.15;1.50;;;20.90;91.30;;;;;;6125156;23;20006;-85
2023/08/15 08:13:46;;;;;;;2.72;1.60;;;20.90;91.30;;;;;;6126441;23;20008;-85
2023/08/15 08:16:12;;;;;;;2.28;1.50;;;20.90;91.30;;;;;;6125257;23;20002;-85
2023/08/15 08:18:37;;;;;;;2.55;1.60;;;20.90;91.30;;;;;;6125234;23;20029;-85
2023/08/15 08:21:05;;;;;;;2.72;1.70;;;20.90;91.30;;;;;;6125200;23;20020;-85
2023/08/15 08:23:31;;;;;;;2.25;1.63;;;20.90;91.30;;;;;;6124718;23;20006;-84
2023/08/15 08:25:56;;;;;;;2.47;1.55;;;20.90;91.30;;;;;;6124979;23;19994;-85
2023/08/15 08:28:22;;;;;;;2.97;1.60;;;20.90;91.30;;;;;;6125224;23;20356;-85
2023/08/15 08:30:48;;;;;;;3.30;1.70;;;20.90;91.30;;;;;;6126046;23;20018;-85
2023/08/15 08:33:14;;;;;;;3.05;1.40;;;20.90;91.30;;;;;;6127360;23;20011;-84
2023/08/15 08:35:39;;;;;;;2.40;1.50;;;20.90;91.30;;;;;;6125915;23;20130;-85
2023/08/15 08:38:05;;;;;;;2.88;1.67;;;20.90;91.30;;;;;;6126207;23;20005;-86
2023/08/15 08:40:31;;;;;;;2.97;1.67;;;20.90;91.30;;;;;;6127351;23;20017;-85
2023/08/15 08:42:58;;;;;;;2.50;1.50;;;20.90;91.40;;;;;;6125430;23;20048;-87
2023/08/15 08:45:25;;;;;;;2.83;1.52;;;20.90;91.60;;;;;;6127041;23;20052;-85
2023/08/15 08:47:51;;;;;;;3.03;1.80;;;20.90;91.40;;;;;;6125829;23;20041;-86
2023/08/15 08:50:17;;;;;;;2.10;1.42;;;20.90;91.40;;;;;;6127221;23;20065;-88
2023/08/15 08:52:50;;;;;;;2.72;1.52;;;20.90;91.40;;;;;;6125525;23;19997;-85
2023/08/15 08:55:21;;;;;;;2.15;1.40;;;21.00;91.40;;;;;;6125044;23;20006;-85
2023/08/15 08:57:52;;;;;;;2.47;1.45;;;21.00;91.30;;;;;;6125230;23;20002;-85
2023/08/15 09:00:22;;;;;;;2.67;1.73;;;20.90;91.30;;;;;;6124863;23;20026;-85
2023/08/15 09:02:49;;;;;;;2.65;1.63;;;21.00;91.30;;;;;;6124904;23;20006;-85
2023/08/15 09:05:15;;;;;;;3.03;1.60;;;20.90;91.30;;;;;;6124553;23;20042;-85
2023/08/15 09:07:42;;;;;;;2.70;1.70;;;21.00;91.30;;;;;;6124895;23;20006;-85
2023/08/15 09:10:08;;;;;;;3.28;1.77;;;21.00;91.30;;;;;;6124967;23;20328;-85
2023/08/15 09:12:38;;;;;;;2.58;1.60;;;21.00;91.30;;;;;;6125036;23;20030;-85
2023/08/15 09:15:05;;;;;;;3.03;1.92;;;21.00;91.30;;;;;;6124889;23;20483;-84
2023/08/15 09:17:31;;;;;;;2.50;1.65;;;21.00;91.20;;;;;;6124717;23;20021;-85
2023/08/15 09:20:06;;;;;;;2.40;1.60;;;21.10;91.20;;;;;;6124609;23;20006;-85
2023/08/15 09:22:32;;;;;;;3.00;1.80;;;21.10;91.10;;;;;;6124419;23;20002;-84
2023/08/15 09:24:58;;;;;;;2.70;1.70;;;21.20;91.00;;;;;;6126363;23;20004;-84
2023/08/15 09:27:23;;;;;;;2.78;1.85;;;21.20;91.00;;;;;;6126423;23;20076;-84
2023/08/15 09:29:49;;;;;;;2.70;1.70;;;21.20;90.90;;;;;;6126330;23;20469;-84
2023/08/15 09:32:14;;;;;;;3.00;1.80;;;21.20;90.90;;;;;;6127570;23;19998;-85
2023/08/15 09:34:40;;;;;;;3.42;1.88;;;21.20;90.80;;;;;;6125984;23;20492;-85
2023/08/15 09:37:06;;;;;;;2.20;1.60;;;21.20;90.90;;;;;;6126565;23;20005;-85
2023/08/15 09:39:33;;;;;;;3.67;1.80;;;21.20;90.80;;;;;;6127666;23;20033;-84
2023/08/15 09:41:58;;;;;;;3.28;1.90;;;21.20;90.90;;;;;;6125823;23;20006;-85
2023/08/15 09:44:33;;;;;;;3.08;1.88;;;21.20;90.90;;;;;;6125584;23;20057;-85
2023/08/15 09:47:00;;;;;;;3.28;1.80;;;21.10;91.00;;;;;;6127731;23;19998;-85
2023/08/15 09:49:28;;;;;;;3.28;2.00;;;21.20;91.10;;;;;;6126380;23;20002;-85
2023/08/15 09:51:53;;;;;;;3.58;2.10;;;21.10;91.10;;;;;;6125588;23;20002;-85
2023/08/15 09:54:21;;;;;;;3.97;2.17;;;21.10;91.10;;;;;;6125776;23;20002;-85
2023/08/15 09:56:46;;;;;;;3.88;2.00;;;21.10;91.10;;;;;;6125937;23;20002;-85
2023/08/15 09:59:12;;;;;;;3.72;2.05;;;21.10;91.00;;;;;;6126092;23;20025;-85
2023/08/15 10:01:40;;;;;;;3.50;2.03;;;21.20;91.00;;;;;;6125807;23;20029;-85
2023/08/15 10:04:09;;;;;;;3.15;1.90;;;21.20;91.00;;;;;;6125367;23;20009;-85
2023/08/15 10:06:36;;;;;;;3.25;1.80;;;21.20;91.00;;;;;;6125767;23;20002;-86
2023/08/15 10:09:03;;;;;;;2.95;2.00;;;21.20;91.10;;;;;;6127318;23;19998;-85
2023/08/15 10:11:31;;;;;;;2.63;1.80;;;21.10;91.10;;;;;;6125922;23;20012;-85
2023/08/15 10:13:57;;;;;;;3.72;2.15;;;21.20;91.20;;;;;;6127317;23;20006;-85
2023/08/15 10:16:24;;;;;;;3.33;1.95;;;21.00;91.20;;;;;;6125684;23;20033;-85
2023/08/15 10:18:56;;;;;;;3.25;2.00;;;21.20;91.20;;;;;;6125810;23;20013;-85
2023/08/15 10:21:23;;;;;;;2.97;2.00;;;21.10;91.10;;;;;;6127282;23;20002;-85
2023/08/15 10:23:51;;;;;;;2.97;1.90;;;21.20;91.10;;;;;;6127160;23;20069;-85
2023/08/15 10:26:17;;;;;;;3.22;2.00;;;21.20;91.10;;;;;;6125684;23;19998;-85
2023/08/15 10:28:45;;;;;;;3.00;1.85;;;21.20;91.10;;;;;;6125435;23;20001;-85
2023/08/15 10:31:11;;;;;;;3.42;1.90;;;21.20;91.00;;;;;;6125416;23;20010;-85
2023/08/15 10:33:37;;;;;;;4.05;2.10;;;21.20;91.00;;;;;;6124818;23;20008;-87
2023/08/15 10:36:02;;;;;;;3.65;2.10;;;21.20;91.00;;;;;;6125772;23;20033;-88
2023/08/15 10:38:30;;;;;;;3.03;1.90;;;21.20;91.00;;;;;;6125562;23;20002;-83
2023/08/15 10:41:11;;;;;;;3.85;2.17;;;21.20;91.00;;;;;;6125358;23;20545;-85
2023/08/15 10:43:36;;;;;;;;;;;21.30;91.00;;;;;;6125383;23;19998;-85
2023/08/15 10:46:06;;;;;;;4.38;2.25;;;21.30;91.00;;;;;;6125360;23;19907;-85
2023/08/15 10:48:43;;;;;;;3.95;2.08;;;21.30;90.90;;;;;;6125558;23;20009;-85
2023/08/15 10:51:23;;;;;;;3.13;2.00;;;21.40;90.90;;;;;;6125422;23;20077;-84
2023/08/15 10:53:50;;;;;;;2.90;1.90;;;21.40;90.80;;;;;;6126297;23;19994;-85
2023/08/15 10:56:22;;;;;;;3.20;1.95;;;21.40;90.70;;;;;;6125310;23;20001;-85
2023/08/15 10:58:48;;;;;;;3.45;2.10;;;21.50;90.60;;;;;;6126935;23;20349;-85
2023/08/15 11:01:18;;;;;;;3.10;2.00;;;21.50;90.50;;;;;;6126687;23;19994;-85
2023/08/15 11:03:46;;;;;;;3.35;2.10;;;21.50;90.50;;;;;;6126125;23;20057;-85
2023/08/15 11:06:13;;;;;;;2.90;1.83;;;21.50;90.50;;;;;;6125142;23;20001;-85
2023/08/15 11:08:47;;;;;;;3.50;2.20;;;21.60;90.50;;;;;;6125100;23;20002;-86
2023/08/15 11:11:13;;;;;;;4.90;2.30;;;21.60;90.50;;;;;;6125193;23;20384;-86
2023/08/15 11:13:40;;;;;;;3.88;2.20;;;21.50;90.50;;;;;;6126222;23;20438;-85
2023/08/15 11:16:07;;;;;;;3.45;2.20;;;21.50;90.60;;;;;;6125713;23;20005;-85
2023/08/15 11:18:34;;;;;;;3.47;2.13;;;21.50;90.60;;;;;;6125459;23;20421;-88
2023/08/15 11:21:00;;;;;;;3.40;2.00;;;21.50;90.60;;;;;;6125380;23;20006;-85
2023/08/15 11:23:28;;;;;;;3.25;2.10;;;21.50;90.60;;;;;;6124749;23;20329;-83
2023/08/15 11:26:16;;;;;;;3.10;2.08;;;21.50;90.70;;;;;;6125348;23;20420;-85
2023/08/15 11:28:42;;;;;;;3.08;1.90;;;21.50;90.70;;;;;;6125104;23;20034;-86
2023/08/15 11:31:12;;;;;;;3.38;2.20;;;21.40;90.70;;;;;;6125257;23;20017;-87
2023/08/15 11:33:38;;;;;;;3.33;2.20;;;21.40;90.70;;;;;;6125055;23;20001;-85
2023/08/15 11:36:06;;;;;;;3.13;2.00;;;21.40;90.80;;;;;;6127264;23;20005;-87
2023/08/15 11:38:33;;;;;;;4.13;2.20;;;21.40;90.90;;;;;;6125791;23;20038;-85
2023/08/15 11:41:01;;;;;;;3.55;2.20;;;21.40;90.90;;;;;;6127166;23;20002;-85
2023/08/15 11:43:27;;;;;;;4.07;2.30;;;21.40;91.00;;;;;;6124861;23;20374;-85
2023/08/15 11:45:53;;;;;;;2.83;1.98;;;21.30;91.00;;;;;;6124994;23;19994;-85
2023/08/15 11:48:19;;;;;;;2.97;2.10;;;21.30;91.10;;;;;;6125495;23;20148;-85
2023/08/15 11:50:45;;;;;;;3.55;2.08;;;21.30;91.10;;;;;;6125546;23;20141;-86
2023/08/15 11:53:13;;;;;;;3.38;2.10;;;21.30;91.10;;;;;;6126645;23;20033;-85
2023/08/15 11:55:40;;;;;;;3.35;2.15;;;21.30;91.10;;;;;;6125676;23;20420;-85
2023/08/15 11:58:29;;;;;;;3.22;1.90;;;21.30;91.00;;;;;;6125486;23;20002;-85
2023/08/15 12:00:56;;;;;;;3.63;2.13;;;21.30;91.00;;;;;;6127593;23;20013;-84
2023/08/15 12:03:24;;;;;;;4.03;2.40;;;21.30;91.00;;;;;;6124652;23;20450;-84
2023/08/15 12:05:53;;;;;;;3.25;2.10;;;21.30;91.00;;;;;;6125257;23;20056;-85
2023/08/15 12:08:19;;;;;;;2.85;1.95;;;21.40;91.00;;;;;;6125381;23;19998;-84
2023/08/15 12:10:45;;;;;;;3.35;2.20;;;21.30;91.00;;;;;;6127080;23;20336;-85
2023/08/15 12:13:11;;;;;;;3.03;2.08;;;21.40;91.10;;;;;;6124468;23;20032;-84
2023/08/15 12:15:37;;;;;;;4.55;2.30;;;21.40;91.00;;;;;;6124683;23;19994;-85
2023/08/15 12:18:03;;;;;;;3.83;2.15;;;21.30;91.00;;;;;;6125042;23;20033;-85
2023/08/15 12:20:28;;;;;;;3.58;2.20;;;21.30;90.90;;;;;;6124905;23;20013;-84
2023/08/15 12:22:54;;;;;;;3.60;2.10;;;21.40;90.90;;;;;;6124468;23;20002;-85
2023/08/15 12:25:19;;;;;;;3.42;2.13;;;21.40;90.90;;;;;;6126258;23;20081;-84
2023/08/15 12:27:45;;;;;;;3.33;2.28;;;21.40;90.90;;;;;;6124757;23;20001;-84
2023/08/15 12:30:10;;;;;;;3.13;2.15;;;21.40;90.80;;;;;;6124035;23;20010;-85
2023/08/15 12:32:36;;;;;;;3.72;2.20;;;21.40;90.80;;;;;;6125944;23;20022;-84
2023/08/15 12:35:02;;;;;;;3.22;2.03;;;21.40;90.80;;;;;;6126137;23;20005;-84
2023/08/15 12:37:27;;;;;;;3.35;2.20;;;21.40;90.90;;;;;;6124511;23;20009;-85
2023/08/15 12:39:53;;;;;;;3.70;2.47;;;21.40;90.90;;;;;;6126081;23;20001;-85
2023/08/15 12:42:18;;;;;;;3.38;2.13;;;21.40;90.90;;;;;;6124064;23;20006;-84
2023/08/15 12:44:44;;;;;;;3.55;2.10;;;21.40;90.90;;;;;;6124158;23;20042;-84
2023/08/15 12:47:10;;;;;;;3.20;1.98;;;21.30;91.00;;;;;;6124643;23;20096;-85
2023/08/15 12:49:37;;;;;;;3.50;2.15;;;21.30;91.00;;;;;;6124497;23;20010;-84
2023/08/15 12:52:04;;;;;;;3.00;2.00;;;21.30;91.10;;;;;;6123976;23;20016;-85
2023/08/15 12:54:30;;;;;;;3.95;2.50;;;21.30;91.10;;;;;;6125606;23;20004;-85
2023/08/15 12:56:55;;;;;;;3.33;2.10;;;21.20;91.10;;;;;;6126060;23;20093;-85
2023/08/15 12:59:21;;;;;;;3.83;2.40;;;21.20;91.10;;;;;;6124276;23;20064;-84
2023/08/15 13:01:47;;;;;;;3.58;2.22;;;21.20;91.10;;;;;;6125411;23;20002;-85
2023/08/15 13:04:12;;;;;;;3.15;2.13;;;21.20;91.10;;;;;;6123939;23;20009;-85
2023/08/15 13:06:40;;;;;;;2.95;2.00;;;21.20;91.10;;;;;;6125587;23;19998;-84
2023/08/15 13:09:07;;;;;;;3.90;2.50;;;21.20;91.20;;;;;;6125870;23;20057;-85
2023/08/15 13:11:36;;;;;;;3.28;2.20;;;21.20;91.20;;;;;;6124187;23;20009;-84
2023/08/15 13:14:03;;;;;;;3.58;2.15;;;21.20;91.20;;;;;;6123648;23;20010;-84
2023/08/15 13:16:29;;;;;;;3.72;2.22;;;21.20;91.20;;;;;;6124389;23;20002;-85
2023/08/15 13:18:55;;;;;;;3.35;2.17;;;21.20;91.20;;;;;;6124228;23;20068;-84
2023/08/15 13:21:20;;;;;;;3.58;2.30;;;21.20;91.20;;;;;;6124084;23;20081;-85
2023/08/15 13:23:46;;;;;;;3.28;2.08;;;21.20;91.30;;;;;;6123383;23;20072;-84
2023/08/15 13:26:12;;;;;;;3.00;2.00;;;21.20;91.30;;;;;;6124104;23;20001;-84
2023/08/15 13:28:38;;;;;;;2.88;1.98;;;21.10;91.30;;;;;;6123750;23;20320;-85
2023/08/15 13:31:03;;;;;;;3.15;2.03;;;21.10;91.30;;;;;;6123367;23;20009;-85
2023/08/15 13:33:29;;;;;;;3.45;2.20;;;21.20;91.40;;;;;;6122402;23;20002;-84
2023/08/15 13:35:55;;;;;;;2.97;2.00;;;21.20;91.40;;;;;;6122612;23;20006;-84
2023/08/15 13:38:20;;;;;;;3.28;2.08;;;21.20;91.40;;;;;;6122754;23;20033;-84
2023/08/15 13:40:46;;;;;;;3.85;2.35;;;21.10;91.30;;;;;;6124565;23;20005;-85
2023/08/15 13:43:13;;;;;;;3.20;2.00;;;21.20;91.30;;;;;;6122308;23;20322;-85
2023/08/15 13:45:39;;;;;;;3.03;2.10;;;21.20;91.30;;;;;;6124014;23;20021;-85
2023/08/15 13:48:05;;;;;;;3.20;2.20;;;21.10;91.20;;;;;;6124296;23;20398;-84
2023/08/15 13:50:30;;;;;;;3.92;2.55;;;21.20;91.20;;;;;;6122525;23;19998;-84
2023/08/15 13:52:56;;;;;;;3.53;2.20;;;21.30;91.10;;;;;;6122132;23;20006;-85
2023/08/15 13:55:21;;;;;;;3.30;1.92;;;21.30;91.10;;;;;;6122383;23;20515;-85
2023/08/15 13:57:47;;;;;;;4.38;2.40;;;21.30;91.10;;;;;;6122645;23;20013;-85
2023/08/15 14:00:13;;;;;;;3.05;1.77;;;21.30;91.10;;;;;;6122756;23;20648;-84
2023/08/15 14:02:38;;;;;;;4.43;2.33;;;21.20;91.10;;;;;;6122368;23;20005;-84
2023/08/15 14:05:04;;;;;;;6.53;2.33;;;21.20;91.20;;;;;;6122482;23;20081;-84
2023/08/15 14:07:31;;;;;;;9.63;3.88;;;21.20;91.50;;;;;;6124162;23;20081;-85
2023/08/15 14:09:56;;;;;;;9.27;3.92;;;21.20;91.70;;;;;;6123732;23;20006;-84
2023/08/15 14:12:22;;;;;;;8.75;3.85;;;21.20;91.90;;;;;;6125147;23;20009;-85
2023/08/15 14:14:47;;;;;;;8.60;3.90;;;21.10;92.00;;;;;;6123723;23;20002;-85
2023/08/15 14:17:14;;;;;;;7.22;3.33;;;21.10;92.10;;;;;;6124004;23;19997;-84
2023/08/15 14:19:39;;;;;;;9.93;3.58;;;21.10;92.10;;;;;;6124056;23;20006;-84
2023/08/15 14:22:05;;;;;;;8.13;3.10;;;21.10;92.20;;;;;;6125399;23;20432;-84
2023/08/15 14:24:33;;;;;;;6.70;3.20;;;21.00;92.30;;;;;;6126493;23;19998;-85
2023/08/15 14:26:58;;;;;;;7.75;3.22;;;21.10;92.40;;;;;;6124029;23;20077;-83
2023/08/15 14:29:24;;;;;;;8.43;3.40;;;21.00;92.40;;;;;;6081792;23;1027199;-85
2023/08/15 14:31:49;;;;;;;6.07;3.33;;;21.00;92.50;;;;;;6125585;23;20010;-85
2023/08/15 14:34:16;;;;;;;7.75;3.45;;;21.00;92.30;;;;;;6127204;23;20006;-85
2023/08/15 14:36:42;;;;;;;8.07;3.40;;;21.10;92.30;;;;;;6126652;23;20451;-84
2023/08/15 14:39:08;;;;;;;6.57;3.10;;;21.00;92.30;;;;;;6125649;23;20005;-84
2023/08/15 14:41:33;;;;;;;6.35;3.40;;;21.00;92.20;;;;;;6125820;23;20009;-86
2023/08/15 14:43:59;;;;;;;7.65;3.20;;;21.10;92.20;;;;;;6127163;23;19994;-81
2023/08/15 14:46:25;;;;;;;8.63;3.08;;;21.00;92.20;;;;;;6125279;23;20002;-83
2023/08/15 14:48:50;;;;;;;8.43;3.50;;;21.00;92.20;;;;;;6125279;23;20033;-84
2023/08/15 14:51:16;;;;;;;8.48;3.30;;;21.00;92.20;;;;;;6125359;23;20040;-83
2023/08/15 14:53:41;;;;;;;9.15;3.30;;;21.10;92.20;;;;;;6126674;23;20010;-84
2023/08/15 14:56:07;;;;;;;8.60;3.40;;;21.00;92.20;;;;;;6125022;23;20045;-83
2023/08/15 14:58:32;;;;;;;8.60;3.45;;;21.00;92.20;;;;;;6125313;23;20002;-84
2023/08/15 15:00:58;;;;;;;6.32;3.10;;;21.00;92.20;;;;;;6125021;23;20037;-83